KAZO

Kalamazoo / Battle Creek International Airport

Kalamazoo, Michigan, USA
KAZO 180845Z 1809/1906 25003KT 4SM BR OVC009 FM181200 28005KT 6SM BR OVC015 FM181600 33006KT P6SM OVC025 FM182000 VRB03KT P6SM BKN035 FM190000 VRB04KT 4SM -SN OVC030 FM190200 06005KT 2SM -SN OVC015 FM190300 06005KT 1SM -SN OVC010
Issued Valid From Valid To
Jan-18 @ 08:45 UTC
(3 hours ago)
Jan-18 @ 09:00 UTC
(3 hours ago)
Jan-19 @ 06:00 UTC
(in 18 hours)
Jan-18 @ 09:00 to Jan-18 @ 12:00
KAZO 180845Z 1809/1906 25003KT 4SM BR OVC009
Wind Visibility Clouds Conditions
250° at 3 knots 4 miles
  • Overcast at 900' AGL
  • Mist
From Jan-18 @ 12:00 to Jan-18 @ 16:00
FM181200 28005KT 6SM BR OVC015
Wind Visibility Clouds Conditions
280° at 5 knots 6 miles
  • Overcast at 1,500' AGL
  • Mist
From Jan-18 @ 16:00 to Jan-18 @ 20:00
FM181600 33006KT P6SM OVC025
Wind Visibility Clouds
330° at 6 knots Greater than 6 miles
  • Overcast at 2,500' AGL
From Jan-18 @ 20:00 to Jan-19 @ 00:00
FM182000 VRB03KT P6SM BKN035
Wind Visibility Clouds
Variable at 3 knots Greater than 6 miles
  • Broken at 3,500' AGL
From Jan-19 @ 00:00 to Jan-19 @ 02:00
FM190000 VRB04KT 4SM -SN OVC030
Wind Visibility Clouds Conditions
Variable at 4 knots 4 miles
  • Overcast at 3,000' AGL
  • Light Snow
From Jan-19 @ 02:00 to Jan-19 @ 03:00
FM190200 06005KT 2SM -SN OVC015
Wind Visibility Clouds Conditions
60° at 5 knots 2 miles
  • Overcast at 1,500' AGL
  • Light Snow
From Jan-19 @ 03:00 to Jan-19 @ 06:00
FM190300 06005KT 1SM -SN OVC010
Wind Visibility Clouds Conditions
60° at 5 knots 1 miles
  • Overcast at 1,000' AGL
  • Light Snow
KAZO 180845Z 1809/1906 25003KT 4SM BR OVC009 FM181200 28005KT 6SM BR OVC015 FM181600 33006KT P6SM OVC025 FM182000 VRB03KT P6SM BKN035 FM190000 VRB04KT 4SM -SN OVC030 FM190200 06005KT 2SM -SN OVC015 FM190300 06005KT 1SM -SN OVC010
Issued Jan-18 @ 08:45 UTC
(3 hours ago)
Valid From Jan-18 @ 09:00 UTC
(3 hours ago)
Valid To Jan-19 @ 06:00 UTC
(in 18 hours)
Jan-18 @ 09:00 - Jan-18 @ 12:00
Wind Visibility
250° at 3 knots 4 miles
Clouds
  • Overcast at 900' AGL
Conditions
  • Mist
From Jan-18 @ 12:00 - Jan-18 @ 16:00
Wind Visibility
280° at 5 knots 6 miles
Clouds
  • Overcast at 1,500' AGL
Conditions
  • Mist
From Jan-18 @ 16:00 - Jan-18 @ 20:00
Wind Visibility
330° at 6 knots Greater than 6 miles
Clouds
  • Overcast at 2,500' AGL
From Jan-18 @ 20:00 - Jan-19 @ 00:00
Wind Visibility
Variable at 3 knots Greater than 6 miles
Clouds
  • Broken at 3,500' AGL
From Jan-19 @ 00:00 - Jan-19 @ 02:00
Wind Visibility
Variable at 4 knots 4 miles
Clouds
  • Overcast at 3,000' AGL
Conditions
  • Light Snow
From Jan-19 @ 02:00 - Jan-19 @ 03:00
Wind Visibility
60° at 5 knots 2 miles
Clouds
  • Overcast at 1,500' AGL
Conditions
  • Light Snow
From Jan-19 @ 03:00 - Jan-19 @ 06:00
Wind Visibility
60° at 5 knots 1 miles
Clouds
  • Overcast at 1,000' AGL
Conditions
  • Light Snow